Terminal Aerodrome Forecast
Issued by NWS Sterling, VA

Current Version | Previous Version | Graphics & Text | Print | Product List | Glossary On
Versions: 1 2 3 4 5 6 7 8 9 10 11 12 13 14 15 16 17 18 19 20 21
000
FTUS41 KLWX 161302 AAB
TAFMRB
TAF AMD
KMRB 161302Z 1613/1712 00000KT 1SM BR VV002
      TEMPO 1613/1614 1/4SM FG VV001
     FM161400 35004KT P6SM SCT040 SCT250
     FM170900 00000KT 5SM BR SCT020=

USA.gov is the U.S. government's official web portal to all federal, state and local government web resources and services.